createdAt,value
2023-02-16T00:04:41.202Z,91.13
2023-02-16T00:07:08.870Z,85.47
2023-02-16T00:09:36.433Z,83.10
2023-02-16T00:12:23.337Z,87.05
2023-02-16T00:14:50.974Z,82.40
2023-02-16T00:17:18.365Z,89.13
2023-02-16T00:19:47.440Z,86.03
2023-02-16T00:22:16.234Z,84.63
2023-02-16T00:24:47.200Z,85.00
2023-02-16T00:27:17.532Z,87.20
2023-02-16T00:32:15.974Z,83.05
2023-02-16T00:34:45.765Z,87.60
2023-02-16T00:37:15.880Z,86.68
2023-02-16T00:39:46.243Z,81.43
2023-02-16T00:42:20.182Z,92.07
2023-02-16T00:44:49.071Z,94.55
2023-02-16T00:47:23.105Z,92.75
2023-02-16T00:49:52.419Z,82.20
2023-02-16T00:52:34.192Z,88.53
2023-02-16T00:55:04.089Z,87.95
2023-02-16T00:57:34.579Z,90.57
2023-02-16T01:03:45.177Z,96.68
2023-02-16T01:06:31.891Z,85.13
2023-02-16T01:09:23.378Z,85.22
2023-02-16T01:11:50.904Z,89.43
2023-02-16T01:14:18.974Z,91.95
2023-02-16T01:16:46.661Z,87.50
2023-02-16T01:19:17.316Z,96.28
2023-02-16T01:21:47.623Z,92.32
2023-02-16T01:24:16.147Z,91.13
2023-02-16T01:26:46.333Z,92.85
2023-02-16T01:29:17.892Z,93.40
2023-02-16T01:31:48.776Z,94.82
2023-02-16T01:34:16.901Z,89.82
2023-02-16T01:36:46.444Z,80.55
2023-02-16T01:39:18.602Z,82.50
2023-02-16T01:41:56.802Z,83.65
2023-02-16T01:44:42.200Z,85.47
2023-02-16T01:47:20.469Z,84.63
2023-02-16T01:49:51.302Z,94.35
2023-02-16T01:52:44.413Z,81.75
2023-02-16T01:55:14.500Z,84.53
2023-02-16T01:58:09.721Z,89.18
2023-02-16T02:00:50.701Z,93.72
2023-02-16T02:03:47.576Z,95.13
2023-02-16T02:06:18.295Z,87.78
2023-02-16T02:08:58.102Z,89.55
2023-02-16T02:11:30.436Z,87.28
2023-02-16T02:14:04.024Z,85.53
2023-02-16T02:16:31.791Z,82.20
2023-02-16T02:19:00.560Z,83.57
2023-02-16T02:21:52.533Z,81.13
2023-02-16T02:24:39.335Z,87.38
2023-02-16T02:27:07.100Z,82.03
2023-02-16T02:29:50.595Z,79.03
2023-02-16T02:32:24.008Z,86.88
2023-02-16T02:35:10.305Z,83.20
2023-02-16T02:37:47.416Z,88.38
2023-02-16T02:40:24.329Z,85.93
2023-02-16T02:43:05.927Z,83.05
2023-02-16T02:45:35.863Z,82.10
2023-02-16T02:48:04.557Z,88.43
2023-02-16T02:51:09.174Z,86.18
2023-02-16T02:53:45.441Z,85.65
2023-02-16T02:56:36.093Z,88.22
2023-02-16T02:59:29.744Z,96.65
2023-02-16T03:02:00.354Z,95.95
2023-02-16T03:04:29.594Z,87.07
2023-02-16T03:06:58.777Z,92.50
2023-02-16T03:09:26.682Z,86.78
2023-02-16T03:12:14.927Z,90.15
2023-02-16T03:14:45.291Z,90.20
2023-02-16T03:17:34.038Z,94.07
2023-02-16T03:20:21.514Z,95.22
2023-02-16T03:23:08.336Z,86.20
2023-02-16T03:25:56.138Z,84.03
2023-02-16T03:28:45.685Z,88.70
2023-02-16T03:31:16.581Z,88.68
2023-02-16T03:33:50.371Z,88.57
2023-02-16T03:36:19.555Z,90.35
2023-02-16T03:38:47.142Z,84.63
2023-02-16T03:41:15.551Z,89.65
2023-02-16T03:43:44.617Z,88.53
2023-02-16T03:46:12.589Z,91.63
2023-02-16T03:48:40.028Z,90.82
2023-02-16T03:51:08.438Z,95.53
2023-02-16T03:53:36.096Z,86.57
2023-02-16T03:56:03.676Z,91.60
2023-02-16T03:58:31.183Z,91.32
2023-02-16T04:00:59.437Z,95.78
2023-02-16T04:03:27.562Z,89.50
2023-02-16T04:05:56.466Z,93.28
2023-02-16T04:08:27.343Z,92.35
2023-02-16T04:10:56.902Z,95.03
2023-02-16T04:13:24.980Z,93.63
2023-02-16T04:15:52.851Z,94.35
2023-02-16T04:18:20.584Z,99.50
2023-02-16T04:20:48.632Z,99.18
2023-02-16T04:23:17.063Z,93.60
2023-02-16T04:25:45.511Z,94.13
2023-02-16T04:28:15.105Z,98.22
2023-02-16T04:30:42.950Z,97.37
2023-02-16T04:33:12.421Z,101.30
2023-02-16T04:35:40.312Z,97.70
2023-02-16T04:38:07.717Z,100.03
2023-02-16T04:40:35.663Z,108.22
2023-02-16T04:43:04.925Z,98.97
2023-02-16T04:45:33.183Z,102.35
2023-02-16T04:48:05.966Z,96.97
2023-02-16T04:50:33.766Z,98.32
2023-02-16T04:53:03.204Z,94.93
2023-02-16T04:55:31.184Z,101.03
2023-02-16T04:58:01.245Z,100.07
2023-02-16T05:00:28.917Z,96.70
2023-02-16T05:02:57.788Z,99.55
2023-02-16T05:05:25.949Z,99.90
2023-02-16T05:07:54.192Z,103.18
2023-02-16T05:10:21.866Z,106.35
2023-02-16T05:13:11.336Z,105.50
2023-02-16T05:15:39.468Z,102.43
2023-02-16T05:18:07.607Z,102.90
2023-02-16T05:20:53.659Z,103.68
2023-02-16T05:23:21.582Z,108.45
2023-02-16T05:25:49.342Z,101.53
2023-02-16T05:28:16.993Z,105.05
2023-02-16T05:30:46.862Z,105.95
2023-02-16T05:33:15.515Z,105.85
2023-02-16T05:35:44.387Z,109.97
2023-02-16T05:38:12.765Z,115.75
2023-02-16T05:40:40.202Z,104.53
2023-02-16T05:43:08.186Z,114.90
2023-02-16T05:45:35.801Z,104.28
2023-02-16T05:48:03.707Z,103.53
2023-02-16T05:50:31.575Z,110.28
2023-02-16T05:53:01.996Z,110.95
2023-02-16T05:55:30.323Z,100.67
2023-02-16T05:57:58.024Z,99.85
2023-02-16T06:00:26.142Z,105.80
2023-02-16T06:02:53.853Z,99.63
2023-02-16T06:05:21.572Z,98.47
2023-02-16T06:07:49.308Z,105.70
2023-02-16T06:10:18.895Z,100.40
2023-02-16T06:12:46.572Z,100.20
2023-02-16T06:15:15.008Z,106.38
2023-02-16T06:17:46.814Z,95.45
2023-02-16T06:20:15.763Z,97.95
2023-02-16T06:22:45.907Z,103.18
2023-02-16T06:25:14.446Z,101.95
2023-02-16T06:27:42.010Z,90.80
2023-02-16T06:30:10.842Z,99.38
2023-02-16T06:32:38.855Z,96.68
2023-02-16T06:35:06.971Z,97.38
2023-02-16T06:37:36.228Z,98.03
2023-02-16T06:40:04.002Z,101.93
2023-02-16T06:42:31.720Z,97.45
2023-02-16T06:44:59.860Z,87.88
2023-02-16T06:47:27.387Z,97.13
2023-02-16T06:49:55.325Z,98.63
2023-02-16T06:52:24.517Z,96.53
2023-02-16T06:54:55.026Z,95.75
2023-02-16T06:59:53.581Z,102.72
2023-02-16T07:02:21.411Z,94.78
2023-02-16T07:04:49.001Z,102.97
2023-02-16T07:07:17.038Z,96.70
2023-02-16T07:09:45.722Z,94.38
2023-02-16T07:12:14.274Z,96.85
2023-02-16T07:14:43.873Z,102.07
2023-02-16T07:17:11.702Z,95.90
2023-02-16T07:19:40.646Z,93.78
2023-02-16T07:22:08.387Z,99.55
2023-02-16T07:24:36.006Z,96.82
2023-02-16T07:27:09.098Z,94.95
2023-02-16T07:29:37.752Z,98.03
2023-02-16T07:32:06.881Z,97.88
2023-02-16T07:34:34.498Z,94.95
2023-02-16T07:37:02.152Z,101.13
2023-02-16T07:39:30.954Z,95.75
2023-02-16T07:41:58.602Z,88.13
2023-02-16T07:44:27.166Z,94.95
2023-02-16T07:46:54.776Z,98.05
2023-02-16T07:49:22.211Z,94.63
2023-02-16T07:51:49.924Z,90.32
2023-02-16T07:54:17.810Z,93.63
2023-02-16T07:56:47.118Z,96.10
2023-02-16T07:59:17.274Z,93.55
2023-02-16T08:01:46.591Z,102.65
2023-02-16T08:04:15.363Z,91.93
2023-02-16T08:06:42.973Z,96.55
2023-02-16T08:09:11.727Z,97.25
2023-02-16T08:11:39.453Z,91.93
2023-02-16T08:14:07.489Z,85.18
2023-02-16T08:16:35.329Z,99.18
2023-02-16T08:19:04.887Z,85.22
2023-02-16T08:21:37.357Z,93.17
2023-02-16T08:24:09.111Z,112.88
2023-02-16T08:26:40.452Z,93.15
2023-02-16T08:29:15.836Z,95.32
2023-02-16T08:31:45.520Z,97.40
2023-02-16T08:34:18.542Z,87.68
2023-02-16T08:36:48.129Z,88.57
2023-02-16T08:39:19.097Z,90.40
2023-02-16T08:41:48.738Z,85.00
2023-02-16T08:44:17.116Z,97.40
2023-02-16T08:46:46.823Z,93.05
2023-02-16T08:49:18.880Z,88.33
2023-02-16T08:51:48.499Z,92.03
2023-02-16T08:54:24.546Z,97.25
2023-02-16T08:56:53.329Z,87.72
2023-02-16T08:59:21.748Z,95.45
2023-02-16T09:01:49.666Z,91.43
2023-02-16T09:04:17.864Z,90.68
2023-02-16T09:06:48.566Z,90.68
2023-02-16T09:09:16.619Z,89.20
2023-02-16T09:11:45.166Z,93.05
2023-02-16T09:14:12.798Z,88.13
2023-02-16T09:16:46.048Z,98.55
2023-02-16T09:19:17.629Z,97.68
2023-02-16T09:21:51.249Z,88.68
2023-02-16T09:24:19.497Z,93.22
2023-02-16T09:26:47.938Z,86.10
2023-02-16T09:29:17.346Z,85.50
2023-02-16T09:31:45.742Z,89.32
2023-02-16T09:34:21.506Z,89.30
2023-02-16T09:36:49.861Z,81.13
2023-02-16T09:39:18.744Z,90.53
2023-02-16T09:42:02.009Z,82.95
2023-02-16T09:44:39.792Z,85.03
2023-02-16T09:47:14.436Z,92.05
2023-02-16T09:49:45.685Z,88.20
2023-02-16T09:52:32.169Z,93.53
2023-02-16T09:55:01.004Z,81.28
2023-02-16T09:57:28.432Z,85.78
2023-02-16T10:00:15.889Z,82.82
2023-02-16T10:02:51.202Z,84.80
2023-02-16T10:05:20.413Z,87.55
2023-02-16T10:08:00.202Z,86.80
2023-02-16T10:10:32.137Z,87.10
2023-02-16T10:13:05.335Z,82.10
2023-02-16T10:15:33.692Z,89.60
2023-02-16T10:18:08.493Z,81.35
2023-02-16T10:20:38.518Z,88.93
2023-02-16T10:23:09.164Z,93.28
2023-02-16T10:25:48.897Z,89.97
2023-02-16T10:28:22.852Z,91.50
2023-02-16T10:30:54.927Z,83.15
2023-02-16T10:33:29.169Z,91.45
2023-02-16T10:35:59.897Z,94.15
2023-02-16T10:38:34.856Z,88.07
2023-02-16T10:41:04.858Z,83.63
2023-02-16T10:43:51.045Z,90.57
2023-02-16T10:46:24.684Z,91.03
2023-02-16T10:48:56.594Z,90.15
2023-02-16T10:51:28.469Z,91.38
2023-02-16T10:56:36.171Z,90.45
2023-02-16T10:59:07.086Z,94.22
2023-02-16T11:01:46.258Z,98.78
2023-02-16T11:04:32.772Z,89.88
2023-02-16T11:07:08.702Z,87.60
2023-02-16T11:09:37.142Z,87.43
2023-02-16T11:12:17.313Z,91.35
2023-02-16T11:14:55.764Z,99.25
2023-02-16T11:17:24.559Z,91.88
2023-02-16T11:20:05.944Z,93.03
2023-02-16T11:22:38.056Z,99.53
2023-02-16T11:25:15.567Z,102.05
2023-02-16T11:27:50.818Z,95.70
2023-02-16T11:30:24.021Z,93.22
2023-02-16T11:32:52.569Z,102.38
2023-02-16T11:35:20.225Z,98.93
2023-02-16T11:37:48.437Z,93.90
2023-02-16T11:40:21.762Z,94.47
2023-02-16T11:42:51.135Z,96.90
2023-02-16T11:45:33.947Z,101.13
2023-02-16T11:48:03.591Z,93.13
2023-02-16T11:50:35.529Z,94.30
2023-02-16T11:53:09.466Z,98.75
2023-02-16T11:55:38.941Z,102.13
2023-02-16T11:58:18.312Z,94.30
2023-02-16T12:00:52.122Z,98.80
2023-02-16T12:03:20.049Z,99.63
2023-02-16T12:05:53.910Z,96.85
2023-02-16T12:08:44.299Z,99.28
2023-02-16T12:11:26.636Z,97.45
2023-02-16T12:14:04.723Z,102.70
2023-02-16T12:16:37.601Z,96.22
2023-02-16T12:19:08.807Z,93.38
2023-02-16T12:22:09.293Z,95.90
2023-02-16T12:24:43.096Z,93.07
2023-02-16T12:27:15.754Z,98.43
2023-02-16T12:29:47.981Z,91.70
2023-02-16T12:32:22.624Z,101.30
2023-02-16T12:35:02.387Z,92.95
2023-02-16T12:37:30.078Z,97.63
2023-02-16T12:40:04.170Z,92.40
2023-02-16T12:42:43.220Z,92.93
2023-02-16T12:45:21.605Z,95.55
2023-02-16T12:48:19.841Z,92.55
2023-02-16T12:50:50.310Z,97.03
2023-02-16T12:53:28.321Z,88.75
2023-02-16T12:56:07.781Z,94.60
2023-02-16T12:58:47.110Z,82.63
2023-02-16T13:01:29.697Z,84.80
2023-02-16T13:04:07.747Z,75.05
2023-02-16T13:06:37.970Z,71.53
2023-02-16T13:09:41.573Z,75.45
2023-02-16T13:12:18.104Z,81.05
2023-02-16T13:14:49.461Z,73.55
2023-02-16T13:17:21.691Z,74.03
2023-02-16T13:19:49.310Z,67.15
2023-02-16T13:22:37.950Z,65.82
2023-02-16T13:25:29.117Z,66.28
2023-02-16T13:28:24.331Z,65.50
2023-02-16T13:31:15.867Z,67.90
2023-02-16T13:34:06.991Z,65.90
2023-02-16T13:36:59.083Z,64.57
2023-02-16T13:39:48.263Z,64.65
2023-02-16T13:42:48.258Z,64.70
2023-02-16T13:45:41.236Z,61.70
2023-02-16T13:48:37.788Z,60.08
2023-02-16T13:51:10.864Z,61.17
2023-02-16T13:53:40.511Z,63.13
2023-02-16T13:56:29.942Z,59.63
2023-02-16T13:59:19.911Z,57.05
2023-02-16T14:01:53.651Z,59.45
2023-02-16T14:04:24.000Z,57.42
2023-02-16T14:07:08.358Z,55.63
2023-02-16T14:09:38.682Z,60.97
2023-02-16T14:12:19.786Z,59.42
2023-02-16T14:14:58.223Z,54.78
2023-02-16T14:17:32.391Z,58.72
2023-02-16T14:20:16.292Z,54.15
2023-02-16T14:22:44.631Z,52.00
2023-02-16T14:25:24.398Z,53.38
2023-02-16T14:28:02.179Z,55.67
2023-02-16T14:30:48.346Z,48.90
2023-02-16T14:33:18.991Z,56.72
2023-02-16T14:36:12.817Z,52.72
2023-02-16T14:38:41.576Z,50.70
2023-02-16T14:41:31.243Z,52.60
2023-02-16T14:44:04.663Z,51.37
2023-02-16T14:46:44.417Z,42.40
2023-02-16T14:49:15.396Z,46.75
2023-02-16T14:51:55.658Z,40.63
2023-02-16T14:54:51.321Z,38.88
2023-02-16T14:57:30.424Z,45.67
2023-02-16T15:00:19.519Z,39.10
2023-02-16T15:02:59.448Z,38.60
2023-02-16T15:05:32.474Z,41.03
2023-02-16T15:08:16.682Z,42.83
2023-02-16T15:10:49.244Z,41.00
2023-02-16T15:13:26.274Z,41.53
2023-02-16T15:15:56.842Z,41.42
2023-02-16T15:18:30.112Z,41.78
2023-02-16T15:20:58.585Z,40.42
2023-02-16T15:23:31.534Z,39.20
2023-02-16T15:26:03.699Z,41.53
2023-02-16T15:28:36.145Z,37.63
2023-02-16T15:31:11.025Z,38.58
2023-02-16T15:33:44.997Z,40.30
2023-02-16T15:36:19.247Z,42.20
2023-02-16T15:39:02.290Z,38.88
2023-02-16T15:41:37.409Z,38.30
2023-02-16T15:44:07.019Z,40.25
2023-02-16T15:46:45.009Z,45.20
2023-02-16T15:49:27.469Z,40.88
2023-02-16T15:51:56.805Z,37.03
2023-02-16T15:54:28.187Z,41.20
2023-02-16T15:57:00.031Z,41.40
2023-02-16T16:02:53.094Z,42.10
2023-02-16T16:05:27.685Z,44.97
2023-02-16T16:07:56.001Z,42.65
2023-02-16T16:10:32.904Z,47.75
2023-02-16T16:13:12.998Z,41.70
2023-02-16T16:15:45.627Z,49.28
2023-02-16T16:18:39.878Z,44.83
2023-02-16T16:21:34.442Z,46.55
2023-02-16T16:24:01.913Z,46.72
2023-02-16T16:26:32.858Z,48.65
2023-02-16T16:29:00.427Z,45.15
2023-02-16T16:31:28.305Z,45.53
2023-02-16T16:34:01.312Z,42.15
2023-02-16T16:36:56.421Z,44.70
2023-02-16T16:39:29.030Z,53.85
2023-02-16T16:42:19.923Z,40.92
2023-02-16T16:44:55.979Z,47.65
2023-02-16T16:47:29.783Z,46.53
2023-02-16T16:50:15.421Z,43.20
2023-02-16T16:52:51.732Z,43.50
2023-02-16T16:55:21.620Z,47.78
2023-02-16T16:57:55.744Z,53.47
2023-02-16T17:00:28.443Z,53.33
2023-02-16T17:02:56.110Z,52.40
2023-02-16T17:05:23.400Z,53.53
2023-02-16T17:07:51.951Z,59.60
2023-02-16T17:10:20.989Z,63.15
2023-02-16T17:12:52.289Z,65.93
2023-02-16T17:15:29.228Z,69.47
2023-02-16T17:17:57.451Z,66.43
2023-02-16T17:20:25.370Z,70.18
2023-02-16T17:22:55.218Z,66.93
2023-02-16T17:25:22.653Z,70.20
2023-02-16T17:27:49.900Z,68.20
2023-02-16T17:30:17.235Z,63.45
2023-02-16T17:32:47.472Z,64.40
2023-02-16T17:35:15.870Z,67.70
2023-02-16T17:37:46.285Z,66.22
2023-02-16T17:42:45.894Z,73.65
2023-02-16T17:45:15.597Z,70.40
2023-02-16T17:47:53.146Z,73.25
2023-02-16T17:50:24.531Z,71.03
2023-02-16T17:52:57.232Z,80.10
2023-02-16T17:55:28.732Z,73.93
2023-02-16T17:57:58.227Z,70.50
2023-02-16T18:00:25.479Z,76.53
2023-02-16T18:02:52.571Z,71.03
2023-02-16T18:05:19.859Z,72.88
2023-02-16T18:07:48.739Z,71.00
2023-02-16T18:10:30.842Z,73.35
2023-02-16T18:12:57.899Z,75.28
2023-02-16T18:15:25.130Z,79.68
2023-02-16T18:17:55.088Z,71.88
2023-02-16T18:20:23.102Z,67.05
2023-02-16T18:22:51.027Z,63.40
2023-02-16T18:25:19.617Z,70.65
2023-02-16T18:27:47.766Z,68.60
2023-02-16T18:30:17.280Z,72.25
2023-02-16T18:32:45.908Z,71.80
2023-02-16T18:35:17.745Z,72.70
2023-02-16T18:37:46.847Z,64.88
2023-02-16T18:40:17.582Z,60.30
2023-02-16T18:42:46.082Z,71.10
2023-02-16T18:45:14.389Z,69.32
2023-02-16T18:47:47.788Z,70.78
2023-02-16T18:50:19.963Z,68.85
2023-02-16T18:52:47.768Z,77.45
2023-02-16T18:55:18.471Z,75.97
2023-02-16T18:57:49.483Z,78.05
2023-02-16T19:00:17.293Z,73.90
2023-02-16T19:02:46.277Z,74.72
2023-02-16T19:05:14.485Z,79.65
2023-02-16T19:07:45.018Z,70.57
2023-02-16T19:12:40.562Z,73.53
2023-02-16T19:15:09.034Z,80.68
2023-02-16T19:17:38.576Z,76.15
2023-02-16T19:20:09.996Z,72.45
2023-02-16T19:22:38.453Z,79.80
2023-02-16T19:25:06.575Z,81.05
2023-02-16T19:27:34.293Z,72.97
2023-02-16T19:30:01.520Z,73.53
2023-02-16T19:32:31.010Z,77.00
2023-02-16T19:34:59.169Z,74.60
2023-02-16T19:37:26.350Z,74.85
2023-02-16T19:39:53.590Z,80.63
2023-02-16T19:42:21.902Z,75.45
2023-02-16T19:44:49.241Z,83.30
2023-02-16T19:47:17.034Z,78.90
2023-02-16T19:49:45.650Z,77.05
2023-02-16T19:52:14.458Z,81.45
2023-02-16T19:54:41.987Z,86.25
2023-02-16T19:57:09.353Z,84.38
2023-02-16T19:59:36.595Z,86.13
2023-02-16T20:02:03.951Z,80.68
2023-02-16T20:04:31.615Z,82.95
2023-02-16T20:06:59.088Z,79.82
2023-02-16T20:09:26.566Z,79.65
2023-02-16T20:11:57.137Z,88.78
2023-02-16T20:16:52.009Z,83.05
2023-02-16T20:19:19.220Z,85.18
2023-02-16T20:21:49.284Z,88.18
2023-02-16T20:24:16.958Z,87.38
2023-02-16T20:26:50.015Z,84.30
2023-02-16T20:29:17.379Z,86.03
2023-02-16T20:31:56.262Z,87.85
2023-02-16T20:34:26.542Z,88.97
2023-02-16T20:36:59.356Z,92.07
2023-02-16T20:39:26.703Z,89.88
2023-02-16T20:41:55.226Z,89.82
2023-02-16T20:44:22.802Z,86.90
2023-02-16T20:46:51.423Z,82.03
2023-02-16T20:49:19.362Z,89.20
2023-02-16T20:51:46.969Z,90.88
2023-02-16T20:54:14.461Z,83.50
2023-02-16T20:56:42.083Z,93.07
2023-02-16T20:59:11.943Z,83.60
2023-02-16T21:01:46.785Z,88.22
2023-02-16T21:04:18.779Z,87.80
2023-02-16T21:06:46.786Z,86.47
2023-02-16T21:09:15.719Z,89.38
2023-02-16T21:11:45.458Z,79.18
2023-02-16T21:14:15.990Z,77.47
2023-02-16T21:19:22.444Z,87.30
2023-02-16T21:21:51.742Z,85.35
2023-02-16T21:24:19.301Z,87.72
2023-02-16T21:26:46.856Z,81.82
2023-02-16T21:29:15.353Z,83.18
2023-02-16T21:31:43.523Z,84.63
2023-02-16T21:34:14.100Z,85.75
2023-02-16T21:36:41.402Z,85.70
2023-02-16T21:39:08.852Z,90.85
2023-02-16T21:41:36.176Z,82.18
2023-02-16T21:44:14.207Z,77.35
2023-02-16T21:46:45.586Z,79.95
2023-02-16T21:49:15.908Z,78.97
2023-02-16T21:51:46.845Z,88.40
2023-02-16T21:54:17.621Z,86.90
2023-02-16T21:56:51.621Z,86.20
2023-02-16T21:59:22.931Z,91.57
2023-02-16T22:01:52.021Z,100.80
2023-02-16T22:04:23.596Z,88.22
2023-02-16T22:06:52.268Z,88.30
2023-02-16T22:09:22.613Z,86.65
2023-02-16T22:11:52.024Z,90.00
2023-02-16T22:14:19.446Z,88.75
2023-02-16T22:16:48.465Z,84.43
2023-02-16T22:19:18.025Z,90.22
2023-02-16T22:21:48.522Z,97.50
2023-02-16T22:24:19.211Z,91.90
2023-02-16T22:29:16.969Z,95.32
2023-02-16T22:31:47.063Z,88.68
2023-02-16T22:34:20.168Z,89.25
2023-02-16T22:36:48.410Z,88.55
2023-02-16T22:39:17.184Z,86.18
2023-02-16T22:41:45.396Z,82.38
2023-02-16T22:44:12.834Z,85.45
2023-02-16T22:46:40.122Z,87.55
2023-02-16T22:49:07.743Z,85.20
2023-02-16T22:51:35.325Z,87.75
2023-02-16T22:54:07.227Z,85.93
2023-02-16T22:56:36.165Z,89.90
2023-02-16T22:59:04.584Z,82.82
2023-02-16T23:01:32.907Z,83.20
2023-02-16T23:04:01.504Z,88.95
2023-02-16T23:06:34.179Z,84.78
2023-02-16T23:09:16.201Z,82.93
2023-02-16T23:11:44.458Z,89.43
2023-02-16T23:14:18.364Z,79.95
2023-02-16T23:16:50.781Z,85.95
2023-02-16T23:19:23.506Z,66.32
2023-02-16T23:21:51.389Z,63.17
2023-02-16T23:24:21.063Z,60.80
2023-02-16T23:26:49.250Z,59.70
2023-02-16T23:29:17.348Z,56.03
2023-02-16T23:31:47.293Z,49.10
2023-02-16T23:34:16.015Z,55.33
2023-02-16T23:36:44.356Z,51.10
2023-02-16T23:39:15.569Z,45.70
2023-02-16T23:41:45.833Z,45.88
2023-02-16T23:44:15.178Z,45.72
2023-02-16T23:46:42.539Z,43.83
2023-02-16T23:49:10.701Z,42.78
2023-02-16T23:51:38.649Z,40.20
2023-02-16T23:54:05.808Z,45.28
2023-02-16T23:56:33.002Z,44.33
2023-02-16T23:59:01.577Z,45.40
